Time;durP1;ratioP1;P1;durP2;ratioP2;P2;SDS_P1;SDS_P2;PMS_P1;PMS_P2;Temp;Humidity;BMP_temperature;BMP_pressure;BME280_temperature;BME280_humidity;BME280_pressure;Samples;Min_cycle;Max_cycle;Signal;HPM_P1;HPM_P2
2023/08/27 00:01:11;;;;;;;2.90;2.70;;;14.50;99.90;;;;;;5029205;28;20063;-51
2023/08/27 00:03:36;;;;;;;3.05;2.85;;;14.40;99.90;;;;;;5049407;28;20101;-53
2023/08/27 00:06:02;;;;;;;6.43;4.10;;;14.40;99.90;;;;;;5051188;28;20029;-51
2023/08/27 00:08:28;;;;;;;3.63;2.67;;;14.20;99.90;;;;;;5050599;28;20041;-52
2023/08/27 00:10:58;;;;;;;3.55;3.00;;;14.20;99.90;;;;;;5049175;28;20041;-58
2023/08/27 00:13:24;;;;;;;3.92;3.35;;;14.20;99.90;;;;;;5050591;28;20036;-51
2023/08/27 00:15:49;;;;;;;3.00;2.80;;;14.20;99.90;;;;;;5050597;28;20029;-51
2023/08/27 00:18:15;;;;;;;3.50;3.20;;;14.10;99.90;;;;;;5050213;28;20033;-54
2023/08/27 00:20:41;;;;;;;4.05;3.13;;;14.10;99.90;;;;;;5050393;28;20516;-50
2023/08/27 00:23:11;;;;;;;3.80;3.17;;;14.00;99.90;;;;;;5050542;28;20041;-53
2023/08/27 00:25:37;;;;;;;5.38;4.93;;;14.00;99.90;;;;;;5050241;28;20048;-51
2023/08/27 00:28:03;;;;;;;5.43;4.70;;;14.00;99.90;;;;;;5050412;28;20094;-51
2023/08/27 00:30:29;;;;;;;5.85;5.13;;;14.00;99.90;;;;;;5049999;28;20041;-50
2023/08/27 00:32:54;;;;;;;4.85;4.45;;;14.00;99.90;;;;;;5050901;28;20473;-53
2023/08/27 00:35:20;;;;;;;5.68;5.18;;;14.10;99.90;;;;;;5049825;28;20032;-51
2023/08/27 00:37:46;;;;;;;5.22;4.75;;;14.00;99.90;;;;;;5050632;28;20036;-53
2023/08/27 00:40:11;;;;;;;9.00;5.32;;;14.10;99.90;;;;;;5049507;28;20036;-54
2023/08/27 00:42:37;;;;;;;6.15;5.18;;;14.10;99.90;;;;;;5050292;28;20596;-51
2023/08/27 00:45:03;;;;;;;6.78;4.90;;;14.10;99.90;;;;;;5050051;28;20033;-52
2023/08/27 00:47:30;;;;;;;5.03;4.63;;;14.20;99.90;;;;;;5050215;28;20048;-52
2023/08/27 00:49:56;;;;;;;4.97;4.65;;;14.20;99.90;;;;;;5049080;28;20072;-55
2023/08/27 00:52:23;;;;;;;6.15;3.92;;;14.20;99.90;;;;;;5050742;28;20037;-53
2023/08/27 00:54:50;;;;;;;5.68;4.40;;;14.20;99.90;;;;;;5049124;28;20033;-51
2023/08/27 00:57:18;;;;;;;5.15;4.57;;;14.20;99.90;;;;;;5050264;28;20037;-53
2023/08/27 00:59:45;;;;;;;5.07;4.65;;;14.10;99.90;;;;;;5049727;28;20415;-51
2023/08/27 01:02:11;;;;;;;5.97;4.15;;;14.10;99.90;;;;;;5050276;28;20048;-52
2023/08/27 01:04:37;;;;;;;9.77;4.70;;;14.00;99.90;;;;;;5049790;28;20041;-52
2023/08/27 01:07:14;;;;;;;5.55;4.97;;;14.00;99.90;;;;;;5049613;28;20119;-55
2023/08/27 01:09:49;;;;;;;5.25;4.80;;;14.00;99.90;;;;;;5049273;28;20048;-51
2023/08/27 01:12:28;;;;;;;5.43;4.80;;;14.00;99.90;;;;;;5050124;28;20116;-53
2023/08/27 01:14:54;;;;;;;5.63;5.05;;;14.10;99.90;;;;;;5048362;28;20452;-54
2023/08/27 01:17:20;;;;;;;;;;;14.10;99.90;;;;;;5050062;28;20036;-51
2023/08/27 01:19:48;;;;;;;6.97;6.35;;;14.10;99.90;;;;;;5048086;28;20397;-50
2023/08/27 01:22:13;;;;;;;6.25;5.70;;;14.10;99.90;;;;;;5049918;28;20033;-51
2023/08/27 01:24:39;;;;;;;6.40;5.90;;;14.20;99.90;;;;;;5049442;28;20116;-55
2023/08/27 01:27:11;;;;;;;7.90;5.53;;;14.20;99.90;;;;;;5049625;28;20040;-51
2023/08/27 01:29:57;;;;;;;5.22;4.72;;;14.20;99.90;;;;;;5048524;28;20383;-52
2023/08/27 01:32:43;;;;;;;4.90;4.60;;;14.20;99.90;;;;;;5031628;28;20037;-52
2023/08/27 01:35:12;;;;;;;6.05;5.43;;;14.20;99.90;;;;;;5043894;28;20048;-54
2023/08/27 01:37:38;;;;;;;8.80;5.30;;;14.20;99.90;;;;;;5049188;28;20231;-52
2023/08/27 01:40:07;;;;;;;6.07;5.15;;;14.20;99.90;;;;;;5048823;28;20520;-51
2023/08/27 01:42:35;;;;;;;5.57;5.10;;;14.20;99.90;;;;;;5049542;28;20083;-57
2023/08/27 01:45:01;;;;;;;5.50;5.13;;;14.20;99.90;;;;;;5049040;28;20508;-55
2023/08/27 01:47:27;;;;;;;5.65;5.25;;;14.20;99.90;;;;;;5049327;28;20482;-54
2023/08/27 01:49:52;;;;;;;7.82;5.07;;;14.30;99.90;;;;;;5047936;28;20124;-53
2023/08/27 01:52:18;;;;;;;6.53;5.90;;;14.20;99.90;;;;;;5049472;28;20662;-52
2023/08/27 01:54:45;;;;;;;10.02;6.72;;;14.20;99.90;;;;;;5031099;28;20033;-51
2023/08/27 01:57:11;;;;;;;6.75;6.15;;;14.20;99.90;;;;;;5048896;28;20048;-56
2023/08/27 01:59:36;;;;;;;8.02;6.10;;;14.30;99.90;;;;;;5048777;28;20514;-51
2023/08/27 02:02:02;;;;;;;5.57;5.13;;;14.30;99.90;;;;;;5049254;28;20045;-51
2023/08/27 02:04:28;;;;;;;6.28;5.75;;;14.30;99.90;;;;;;5048178;28;20037;-55
2023/08/27 02:06:54;;;;;;;6.20;5.38;;;14.30;99.90;;;;;;5040537;28;20036;-51
2023/08/27 02:09:19;;;;;;;5.13;4.80;;;14.30;99.90;;;;;;5047742;28;20406;-53
2023/08/27 02:11:45;;;;;;;7.75;6.78;;;14.30;99.90;;;;;;5044545;28;20076;-53
2023/08/27 02:14:10;;;;;;;9.73;6.20;;;14.30;99.90;;;;;;5048797;28;20520;-52
2023/08/27 02:16:37;;;;;;;6.97;6.38;;;14.30;99.90;;;;;;5049018;28;20044;-51
2023/08/27 02:19:03;;;;;;;6.20;5.78;;;14.30;99.90;;;;;;5048363;28;20048;-54
2023/08/27 02:21:29;;;;;;;6.88;5.47;;;14.30;99.90;;;;;;5048827;28;20490;-55
2023/08/27 02:23:55;;;;;;;7.00;5.63;;;14.20;99.90;;;;;;5048315;28;20039;-51
2023/08/27 02:26:20;;;;;;;6.00;5.55;;;14.20;99.90;;;;;;5049227;28;20033;-52
2023/08/27 02:28:47;;;;;;;5.40;4.78;;;14.20;99.90;;;;;;5051618;28;20041;-52
2023/08/27 02:31:13;;;;;;;5.93;4.75;;;14.20;99.90;;;;;;5053209;28;20305;-52
2023/08/27 02:33:40;;;;;;;6.07;5.45;;;14.10;99.90;;;;;;5052791;28;20470;-54
2023/08/27 02:36:06;;;;;;;5.63;5.22;;;14.00;99.90;;;;;;5052600;28;20051;-53
2023/08/27 02:38:33;;;;;;;7.05;5.47;;;13.90;99.90;;;;;;5047218;28;20486;-53
2023/08/27 02:40:58;;;;;;;7.88;5.03;;;13.90;99.90;;;;;;5051991;28;20068;-51
2023/08/27 02:43:24;;;;;;;6.07;5.45;;;13.80;99.90;;;;;;5052525;28;20075;-53
2023/08/27 02:45:50;;;;;;;5.55;5.15;;;13.70;99.90;;;;;;5052453;28;20041;-54
2023/08/27 02:48:16;;;;;;;6.75;4.70;;;13.70;99.90;;;;;;5052235;28;20578;-55
2023/08/27 02:50:41;;;;;;;5.68;5.05;;;13.70;99.90;;;;;;5051886;28;20132;-55
2023/08/27 02:53:07;;;;;;;7.18;5.47;;;13.70;99.90;;;;;;5052096;28;20052;-51
2023/08/27 02:55:33;;;;;;;6.30;5.70;;;13.70;99.90;;;;;;5051873;28;20049;-51
2023/08/27 02:57:59;;;;;;;6.95;6.35;;;13.70;99.90;;;;;;5052399;28;20033;-51
2023/08/27 03:00:25;;;;;;;7.63;6.82;;;13.70;99.90;;;;;;5052214;28;20037;-51
2023/08/27 03:02:50;;;;;;;;;;;13.70;99.90;;;;;;5053013;28;20090;-52
2023/08/27 03:05:17;;;;;;;7.13;5.80;;;13.70;99.90;;;;;;5051455;28;20327;-56
2023/08/27 03:07:42;;;;;;;;;;;13.70;99.90;;;;;;5052280;28;20041;-56
2023/08/27 03:10:08;;;;;;;5.40;5.00;;;13.70;99.90;;;;;;5050513;28;19927;-53
2023/08/27 03:12:33;;;;;;;5.32;4.82;;;13.70;99.90;;;;;;5050563;28;20332;-51
2023/08/27 03:14:59;;;;;;;5.53;5.18;;;13.70;99.90;;;;;;5051185;28;20076;-51
2023/08/27 03:17:24;;;;;;;7.95;5.45;;;13.70;99.90;;;;;;5049783;28;20452;-56
2023/08/27 03:19:50;;;;;;;5.82;5.25;;;13.70;99.90;;;;;;5050258;28;20044;-54
2023/08/27 03:22:16;;;;;;;6.15;5.47;;;13.70;99.90;;;;;;5051350;28;20120;-51
2023/08/27 03:24:41;;;;;;;6.15;5.65;;;13.70;99.90;;;;;;5045658;28;20406;-54
2023/08/27 03:27:07;;;;;;;6.63;6.03;;;13.70;99.90;;;;;;5051934;28;20249;-51
2023/08/27 03:29:33;;;;;;;6.15;5.50;;;13.70;99.90;;;;;;5050475;28;20091;-51
2023/08/27 03:31:58;;;;;;;9.25;6.30;;;13.70;99.90;;;;;;5051854;28;20036;-52
2023/08/27 03:34:24;;;;;;;6.35;5.78;;;13.80;99.90;;;;;;5051402;28;20041;-52
2023/08/27 03:36:50;;;;;;;8.18;4.70;;;13.80;99.90;;;;;;5050695;28;20037;-53
2023/08/27 03:39:15;;;;;;;5.78;5.03;;;13.80;99.90;;;;;;5032158;28;20044;-51
2023/08/27 03:41:41;;;;;;;5.97;5.38;;;13.80;99.90;;;;;;5046433;28;20040;-54
2023/08/27 03:44:07;;;;;;;5.70;5.15;;;13.80;99.90;;;;;;5051246;28;20560;-54
2023/08/27 03:46:32;;;;;;;12.30;5.70;;;13.90;99.90;;;;;;5051297;28;20040;-53
2023/08/27 03:49:01;;;;;;;8.40;5.78;;;13.90;99.90;;;;;;5050643;28;20404;-51
2023/08/27 03:51:28;;;;;;;6.78;5.05;;;13.90;99.90;;;;;;5051095;28;20122;-51
2023/08/27 03:53:55;;;;;;;5.20;4.75;;;14.00;99.90;;;;;;5050337;28;20044;-51
2023/08/27 03:56:21;;;;;;;5.22;4.90;;;14.00;99.90;;;;;;5051583;28;20032;-52
2023/08/27 03:58:47;;;;;;;4.40;4.07;;;14.00;99.90;;;;;;5050353;28;20494;-51
2023/08/27 04:01:13;;;;;;;5.60;4.97;;;14.10;99.90;;;;;;5051704;28;20041;-51
2023/08/27 04:03:39;;;;;;;6.07;5.53;;;14.10;99.90;;;;;;5033063;28;20063;-51
2023/08/27 04:06:07;;;;;;;5.38;4.90;;;14.10;99.90;;;;;;5050779;28;20124;-55
2023/08/27 04:08:33;;;;;;;5.50;5.00;;;14.10;99.90;;;;;;5049940;28;20040;-54
2023/08/27 04:11:01;;;;;;;7.18;5.53;;;14.10;99.90;;;;;;5050710;28;20506;-52
2023/08/27 04:13:26;;;;;;;6.28;5.88;;;14.10;99.90;;;;;;5050598;28;20037;-51
2023/08/27 04:16:06;;;;;;;6.15;5.68;;;14.10;99.90;;;;;;5032963;28;20379;-52
2023/08/27 04:18:35;;;;;;;7.20;6.50;;;14.10;99.90;;;;;;5050353;28;20040;-54
2023/08/27 04:21:02;;;;;;;8.32;7.50;;;14.10;99.90;;;;;;5049770;28;20029;-51
2023/08/27 04:23:28;;;;;;;8.15;7.45;;;14.10;99.90;;;;;;5049270;28;20095;-54
2023/08/27 04:25:54;;;;;;;8.05;7.45;;;14.10;99.90;;;;;;5046872;28;20482;-53
2023/08/27 04:28:20;;;;;;;11.20;7.60;;;14.10;99.90;;;;;;5050057;28;20059;-53
2023/08/27 04:30:49;;;;;;;7.03;6.43;;;14.10;99.90;;;;;;5032101;28;20044;-55
2023/08/27 04:33:16;;;;;;;7.35;6.68;;;14.00;99.90;;;;;;5049910;28;20033;-54
2023/08/27 04:35:44;;;;;;;7.93;7.15;;;14.00;99.90;;;;;;5049707;28;20498;-52
2023/08/27 04:38:10;;;;;;;7.72;7.05;;;14.00;99.90;;;;;;5050386;28;20033;-54
2023/08/27 04:40:36;;;;;;;7.88;7.25;;;14.00;99.90;;;;;;5049795;28;20048;-52
2023/08/27 04:43:02;;;;;;;7.63;6.95;;;13.90;99.90;;;;;;5050344;28;20374;-52
2023/08/27 04:45:28;;;;;;;8.50;7.68;;;14.00;99.90;;;;;;5044717;28;20044;-53
2023/08/27 04:47:57;;;;;;;7.43;6.60;;;14.00;99.90;;;;;;5049581;28;20513;-54
2023/08/27 04:50:23;;;;;;;6.97;6.35;;;13.90;99.90;;;;;;5049124;28;20502;-52
2023/08/27 04:52:48;;;;;;;7.85;7.00;;;13.90;99.90;;;;;;5050216;28;20079;-53
2023/08/27 04:55:14;;;;;;;7.53;6.93;;;13.90;99.90;;;;;;5049973;28;20036;-52
2023/08/27 04:57:39;;;;;;;7.70;7.03;;;13.80;99.90;;;;;;5049790;28;20481;-55
2023/08/27 05:00:16;;;;;;;8.45;7.65;;;13.80;99.90;;;;;;5049638;28;20036;-51
2023/08/27 05:02:42;;;;;;;9.43;8.40;;;13.80;99.90;;;;;;5049524;28;20432;-52
2023/08/27 05:05:08;;;;;;;10.93;9.82;;;13.80;99.90;;;;;;5050010;28;20037;-54
2023/08/27 05:07:33;;;;;;;10.30;9.30;;;13.80;99.90;;;;;;5049853;28;20040;-51
2023/08/27 05:09:59;;;;;;;10.02;9.13;;;13.80;99.90;;;;;;5049291;28;20037;-51
2023/08/27 05:12:25;;;;;;;12.63;8.93;;;13.90;99.90;;;;;;5050010;28;20379;-54
2023/08/27 05:14:50;;;;;;;9.38;8.48;;;13.90;99.90;;;;;;5049501;28;20032;-54
2023/08/27 05:17:16;;;;;;;9.27;8.40;;;13.90;99.90;;;;;;5049914;28;20632;-51
2023/08/27 05:19:42;;;;;;;;;;;13.90;99.90;;;;;;5029703;28;20045;-56
2023/08/27 05:22:07;;;;;;;8.52;7.78;;;14.00;99.90;;;;;;5049560;28;19935;-51
2023/08/27 05:24:34;;;;;;;10.80;8.30;;;14.00;99.90;;;;;;5049614;28;20041;-54
2023/08/27 05:27:00;;;;;;;9.00;7.80;;;14.00;99.90;;;;;;5049052;28;20072;-51
2023/08/27 05:29:26;;;;;;;8.63;7.72;;;14.00;99.90;;;;;;5045207;28;20131;-52
2023/08/27 05:31:51;;;;;;;8.43;7.50;;;14.10;99.90;;;;;;5048115;28;20082;-54
2023/08/27 05:34:17;;;;;;;13.02;8.70;;;14.10;99.90;;;;;;5049248;28;20040;-51
2023/08/27 05:36:42;;;;;;;12.77;8.23;;;14.20;99.90;;;;;;5049405;28;20029;-54
2023/08/27 05:39:08;;;;;;;8.52;7.75;;;14.20;99.90;;;;;;5048704;28;20494;-52
2023/08/27 05:41:34;;;;;;;13.50;7.88;;;14.20;99.90;;;;;;5049219;28;20103;-53
2023/08/27 05:43:59;;;;;;;8.75;7.82;;;14.20;99.90;;;;;;5049224;28;20036;-54
2023/08/27 05:46:25;;;;;;;8.93;8.00;;;14.30;99.90;;;;;;5048860;28;20489;-51
2023/08/27 05:48:50;;;;;;;10.52;7.93;;;14.30;99.90;;;;;;5039919;28;20052;-52
2023/08/27 05:51:16;;;;;;;8.35;6.85;;;14.30;99.90;;;;;;5042081;28;20461;-55
2023/08/27 05:53:42;;;;;;;9.80;6.80;;;14.40;99.90;;;;;;5048782;28;20120;-52
2023/08/27 05:56:08;;;;;;;7.78;6.97;;;14.40;99.90;;;;;;5049529;28;20459;-51
2023/08/27 05:58:34;;;;;;;9.82;6.30;;;14.40;99.90;;;;;;5035526;28;20073;-51
2023/08/27 06:01:01;;;;;;;7.85;5.80;;;14.40;99.90;;;;;;5030450;28;20494;-51
2023/08/27 06:03:26;;;;;;;6.47;5.00;;;14.40;99.90;;;;;;5026763;28;20478;-53
2023/08/27 06:05:52;;;;;;;9.05;5.15;;;14.40;99.90;;;;;;5048290;28;20040;-51
2023/08/27 06:08:17;;;;;;;6.00;4.88;;;14.40;99.90;;;;;;5053854;28;20474;-52
2023/08/27 06:10:43;;;;;;;8.13;4.55;;;14.40;99.90;;;;;;5030260;28;20558;-56
2023/08/27 06:13:09;;;;;;;7.63;4.88;;;14.40;99.90;;;;;;5041558;28;20081;-52
2023/08/27 06:15:34;;;;;;;5.90;3.88;;;14.50;99.90;;;;;;5044157;28;20032;-51
2023/08/27 06:18:03;;;;;;;4.90;4.30;;;14.40;99.90;;;;;;5051429;28;20043;-55
2023/08/27 06:20:29;;;;;;;5.75;4.05;;;14.40;99.90;;;;;;5051170;28;20037;-52
2023/08/27 06:22:55;;;;;;;;;;;14.40;99.90;;;;;;5053544;28;20037;-51
2023/08/27 06:25:22;;;;;;;7.93;3.97;;;14.40;99.90;;;;;;5051967;28;19938;-51
2023/08/27 06:27:48;;;;;;;6.07;4.18;;;14.40;99.90;;;;;;5052759;28;20053;-51
2023/08/27 06:30:13;;;;;;;5.45;4.45;;;14.40;99.90;;;;;;5051574;28;20033;-52
2023/08/27 06:32:39;;;;;;;9.43;4.85;;;14.30;99.90;;;;;;5053160;28;20041;-53
2023/08/27 06:35:05;;;;;;;4.28;3.88;;;14.30;99.90;;;;;;5049247;28;20052;-52
2023/08/27 06:37:31;;;;;;;5.82;5.13;;;14.30;99.90;;;;;;5049232;28;20075;-54
2023/08/27 06:39:57;;;;;;;6.43;5.70;;;14.20;99.90;;;;;;5042137;28;20080;-54
2023/08/27 06:42:22;;;;;;;5.95;5.28;;;14.20;99.90;;;;;;5049128;28;20115;-56
2023/08/27 06:44:48;;;;;;;5.88;4.68;;;14.20;99.90;;;;;;5042887;28;20044;-50
2023/08/27 06:47:14;;;;;;;7.40;5.80;;;14.20;99.90;;;;;;5046032;28;20491;-54
2023/08/27 06:49:39;;;;;;;6.57;5.70;;;14.10;99.90;;;;;;5046121;28;20037;-53
2023/08/27 06:52:05;;;;;;;7.90;5.63;;;14.10;99.90;;;;;;5049739;28;20348;-55
2023/08/27 06:54:31;;;;;;;6.97;5.28;;;14.10;99.90;;;;;;5050567;28;20073;-52
2023/08/27 06:56:56;;;;;;;9.55;4.65;;;14.10;99.90;;;;;;5050851;28;20029;-52
2023/08/27 06:59:22;;;;;;;4.65;4.20;;;14.10;99.90;;;;;;5048686;28;20040;-54
2023/08/27 07:01:47;;;;;;;5.78;3.40;;;14.10;99.90;;;;;;5051018;28;20486;-54
2023/08/27 07:04:13;;;;;;;5.70;4.00;;;14.10;99.90;;;;;;5044855;28;20677;-54
2023/08/27 07:06:39;;;;;;;4.68;3.45;;;14.10;99.90;;;;;;5050810;28;20041;-51
2023/08/27 07:09:05;;;;;;;5.32;3.20;;;14.10;99.90;;;;;;5049522;28;20075;-56
2023/08/27 07:11:31;;;;;;;;;;;14.10;99.90;;;;;;5042031;28;20396;-51
2023/08/27 07:13:57;;;;;;;3.95;3.33;;;14.10;99.90;;;;;;5048133;28;19923;-54
2023/08/27 07:16:22;;;;;;;2.90;2.25;;;14.20;99.90;;;;;;5047965;28;20032;-54
2023/08/27 07:18:48;;;;;;;6.68;2.50;;;14.20;99.90;;;;;;5049576;28;20052;-53
2023/08/27 07:21:13;;;;;;;8.65;3.00;;;14.20;99.90;;;;;;5050767;28;20055;-55
2023/08/27 07:23:39;;;;;;;6.80;2.85;;;14.20;99.90;;;;;;5049825;28;20029;-54
2023/08/27 07:26:05;;;;;;;10.95;3.58;;;14.30;99.90;;;;;;5049566;28;20029;-55
2023/08/27 07:28:31;;;;;;;6.63;4.90;;;14.40;99.90;;;;;;5049053;28;20075;-54
2023/08/27 07:30:56;;;;;;;5.45;2.67;;;14.60;99.90;;;;;;5047254;28;20512;-52
2023/08/27 07:33:22;;;;;;;3.72;2.10;;;14.70;99.90;;;;;;5046020;28;20029;-51
2023/08/27 07:35:48;;;;;;;3.13;2.17;;;14.80;99.90;;;;;;5047596;28;20045;-51
2023/08/27 07:38:14;;;;;;;2.75;2.40;;;15.00;99.90;;;;;;5046568;28;20072;-54
2023/08/27 07:40:41;;;;;;;2.85;1.60;;;15.20;99.90;;;;;;5045930;28;20032;-52
2023/08/27 07:43:07;;;;;;;2.67;1.30;;;15.30;99.90;;;;;;5028652;28;20369;-54
2023/08/27 07:45:33;;;;;;;2.72;1.00;;;15.50;99.90;;;;;;5049077;28;20068;-53
2023/08/27 07:47:59;;;;;;;1.77;0.90;;;15.60;99.90;;;;;;5027870;28;20127;-55
2023/08/27 07:50:25;;;;;;;2.78;1.00;;;15.70;99.90;;;;;;5045843;28;20072;-52
2023/08/27 07:52:51;;;;;;;4.90;1.08;;;15.70;99.90;;;;;;5048130;28;20494;-53
2023/08/27 07:55:17;;;;;;;1.25;1.00;;;15.70;99.90;;;;;;5045709;28;20040;-52
2023/08/27 07:57:43;;;;;;;1.63;0.80;;;15.70;99.90;;;;;;5048626;28;20059;-55
2023/08/27 08:00:09;;;;;;;0.98;0.70;;;15.70;99.90;;;;;;5039268;28;20033;-55
2023/08/27 08:02:35;;;;;;;1.10;0.60;;;15.70;99.90;;;;;;5042702;28;20140;-55
2023/08/27 08:05:01;;;;;;;2.42;0.80;;;15.80;99.90;;;;;;5045657;28;20139;-52
2023/08/27 08:07:27;;;;;;;0.95;0.60;;;15.80;99.90;;;;;;5049779;28;20049;-55
2023/08/27 08:09:53;;;;;;;1.75;0.85;;;15.90;99.90;;;;;;5047221;28;20088;-51
2023/08/27 08:12:19;;;;;;;3.03;0.65;;;15.90;99.90;;;;;;5045150;28;20086;-51
2023/08/27 08:14:45;;;;;;;0.80;0.73;;;16.00;99.90;;;;;;5045674;28;20782;-53
2023/08/27 08:17:11;;;;;;;1.10;0.70;;;16.00;99.90;;;;;;5049705;28;20029;-51
2023/08/27 08:19:37;;;;;;;;;;;15.90;99.90;;;;;;5028327;28;20056;-53
2023/08/27 08:22:03;;;;;;;5.57;1.55;;;15.90;99.90;;;;;;5046114;28;20397;-51
2023/08/27 08:24:28;;;;;;;3.05;1.05;;;15.90;99.90;;;;;;5045428;28;20037;-51
2023/08/27 08:26:54;;;;;;;4.88;1.55;;;15.90;99.90;;;;;;5028698;28;20052;-51
2023/08/27 08:29:23;;;;;;;2.17;1.25;;;16.00;99.90;;;;;;5040834;28;20036;-51
2023/08/27 08:31:48;;;;;;;1.55;1.10;;;16.10;99.90;;;;;;5042874;28;20036;-52
2023/08/27 08:34:14;;;;;;;1.52;1.42;;;16.20;99.90;;;;;;5042279;28;20537;-51
2023/08/27 08:36:40;;;;;;;1.35;1.10;;;16.50;99.90;;;;;;5046287;28;20102;-55
2023/08/27 08:39:05;;;;;;;4.32;1.73;;;16.70;99.90;;;;;;5048237;28;20033;-55
2023/08/27 08:41:36;;;;;;;2.00;0.85;;;16.80;99.90;;;;;;5047576;28;20052;-52
2023/08/27 08:44:18;;;;;;;2.67;1.52;;;16.90;99.90;;;;;;5044998;28;20040;-51
2023/08/27 08:46:45;;;;;;;2.22;0.88;;;17.10;99.90;;;;;;5044418;28;20064;-54
2023/08/27 08:49:15;;;;;;;4.80;1.10;;;17.10;99.90;;;;;;5044396;28;20052;-51
2023/08/27 08:51:42;;;;;;;3.95;1.10;;;17.20;99.90;;;;;;5025897;28;20053;-54
2023/08/27 08:54:10;;;;;;;1.65;0.98;;;17.30;99.90;;;;;;5043910;28;20044;-55
2023/08/27 08:56:40;;;;;;;1.77;1.02;;;17.30;99.90;;;;;;5044745;28;20068;-51
2023/08/27 08:59:06;;;;;;;2.35;1.25;;;17.40;99.90;;;;;;5044732;28;20568;-54
2023/08/27 09:01:34;;;;;;;6.65;1.52;;;17.50;99.90;;;;;;5046389;28;20564;-54
2023/08/27 09:04:00;;;;;;;1.85;1.60;;;17.60;99.90;;;;;;5043558;28;20068;-52
2023/08/27 09:06:27;;;;;;;2.75;1.85;;;17.80;99.90;;;;;;5047967;28;20048;-51
2023/08/27 09:08:53;;;;;;;3.20;2.17;;;17.80;99.90;;;;;;5048015;28;20440;-51
2023/08/27 09:11:22;;;;;;;6.50;1.88;;;17.90;99.90;;;;;;5045852;28;20037;-56
2023/08/27 09:13:48;;;;;;;2.53;1.85;;;18.10;99.90;;;;;;5043511;28;20037;-51
2023/08/27 09:16:13;;;;;;;4.28;1.80;;;18.10;99.90;;;;;;5045185;28;20055;-51
2023/08/27 09:18:39;;;;;;;3.42;1.48;;;18.20;99.90;;;;;;5047654;28;20174;-52
2023/08/27 09:21:06;;;;;;;4.63;1.98;;;18.30;99.90;;;;;;5042526;28;20107;-51
2023/08/27 09:23:37;;;;;;;3.78;2.67;;;18.40;99.90;;;;;;5048090;28;20358;-52
2023/08/27 09:26:04;;;;;;;3.10;2.38;;;18.30;99.90;;;;;;5046756;28;20058;-51
2023/08/27 09:28:29;;;;;;;3.95;2.35;;;18.30;99.90;;;;;;5044820;28;20058;-52
2023/08/27 09:30:55;;;;;;;3.75;2.83;;;18.30;99.90;;;;;;5044969;28;20483;-52
2023/08/27 09:33:43;;;;;;;5.35;1.83;;;18.30;99.90;;;;;;5045710;28;20029;-55
2023/08/27 09:36:09;;;;;;;4.00;2.28;;;18.30;99.90;;;;;;5040787;28;20548;-53
2023/08/27 09:38:35;;;;;;;8.90;2.15;;;18.40;99.90;;;;;;5040860;28;20055;-52
2023/08/27 09:41:12;;;;;;;4.45;2.17;;;18.40;99.90;;;;;;5046299;28;20052;-51
2023/08/27 09:43:38;;;;;;;3.25;2.38;;;18.30;99.90;;;;;;5045022;28;20048;-52
2023/08/27 09:46:09;;;;;;;2.85;1.85;;;18.30;99.90;;;;;;5047875;28;20170;-54
2023/08/27 09:48:35;;;;;;;3.50;2.30;;;18.20;99.90;;;;;;5048209;28;20072;-51
2023/08/27 09:51:05;;;;;;;3.03;1.65;;;18.10;99.90;;;;;;5048077;28;20076;-52
2023/08/27 09:53:32;;;;;;;2.75;1.52;;;18.10;99.90;;;;;;5048183;28;20083;-52
2023/08/27 09:55:58;;;;;;;1.60;1.42;;;18.00;99.90;;;;;;5048135;28;20474;-51
2023/08/27 09:58:27;;;;;;;4.53;1.65;;;18.00;99.90;;;;;;5045576;28;20044;-51
2023/08/27 10:01:03;;;;;;;6.15;2.03;;;18.10;99.90;;;;;;5029640;28;20036;-54
2023/08/27 10:03:29;;;;;;;3.85;2.30;;;18.20;99.90;;;;;;5045951;28;20482;-53
2023/08/27 10:05:55;;;;;;;;;;;18.50;99.90;;;;;;5048518;28;20402;-53
2023/08/27 10:08:21;;;;;;;4.70;1.90;;;18.60;99.90;;;;;;5041182;28;19982;-51
2023/08/27 10:10:46;;;;;;;5.38;2.35;;;18.70;99.90;;;;;;5046982;28;20045;-53
2023/08/27 10:13:14;;;;;;;3.70;2.00;;;18.70;99.90;;;;;;5044596;28;20044;-51
2023/08/27 10:15:41;;;;;;;6.00;1.90;;;18.70;99.90;;;;;;5048000;28;20122;-51
2023/08/27 10:18:13;;;;;;;2.40;1.60;;;18.70;99.90;;;;;;5047020;28;20128;-53
2023/08/27 10:20:41;;;;;;;5.03;2.17;;;18.70;99.90;;;;;;5043739;28;20045;-53
2023/08/27 10:23:10;;;;;;;7.45;2.50;;;18.70;99.90;;;;;;5044577;28;20059;-55
2023/08/27 10:25:37;;;;;;;3.05;1.70;;;18.70;99.90;;;;;;5047059;28;20102;-51
2023/08/27 10:28:04;;;;;;;3.05;1.40;;;18.80;99.90;;;;;;5044633;28;20033;-51
2023/08/27 10:30:31;;;;;;;4.38;1.75;;;18.80;99.90;;;;;;5027296;28;20084;-52
2023/08/27 10:32:57;;;;;;;5.18;1.48;;;18.90;99.90;;;;;;5047700;28;20248;-51
2023/08/27 10:35:23;;;;;;;7.13;1.85;;;19.00;99.90;;;;;;5045161;28;20044;-51
2023/08/27 10:37:53;;;;;;;3.80;1.52;;;19.00;99.90;;;;;;5044380;28;20029;-51
2023/08/27 10:40:20;;;;;;;6.88;1.40;;;19.00;99.90;;;;;;5043902;28;20049;-52
2023/08/27 10:42:46;;;;;;;2.78;1.00;;;19.00;99.90;;;;;;5044760;28;20029;-53
2023/08/27 10:45:27;;;;;;;3.03;1.42;;;19.10;99.90;;;;;;5040476;28;20483;-53
2023/08/27 10:48:10;;;;;;;1.65;1.08;;;19.30;99.90;;;;;;5044570;28;20086;-52
2023/08/27 10:50:48;;;;;;;4.20;0.70;;;19.30;99.90;;;;;;5046841;28;20095;-54
2023/08/27 10:53:15;;;;;;;2.72;1.25;;;19.30;99.90;;;;;;5048249;28;20040;-52
2023/08/27 10:55:48;;;;;;;4.25;1.05;;;19.10;99.90;;;;;;5048541;28;20116;-54
2023/08/27 10:58:17;;;;;;;4.13;1.65;;;19.20;99.90;;;;;;5046967;28;20375;-53
2023/08/27 11:01:02;;;;;;;4.13;1.15;;;19.20;99.90;;;;;;5050090;28;20069;-52
2023/08/27 11:03:47;;;;;;;6.18;1.30;;;19.40;99.90;;;;;;5045166;28;20044;-55
2023/08/27 11:06:13;;;;;;;2.97;0.80;;;19.50;99.90;;;;;;5032301;28;20106;-51
2023/08/27 11:08:41;;;;;;;2.25;1.02;;;19.50;99.90;;;;;;5048057;28;20490;-52
2023/08/27 11:11:15;;;;;;;2.13;1.10;;;19.50;99.90;;;;;;5049580;28;20045;-51
2023/08/27 11:13:41;;;;;;;8.82;1.75;;;19.60;99.90;;;;;;5045716;28;20037;-51
2023/08/27 11:16:15;;;;;;;4.45;1.27;;;19.80;99.90;;;;;;5045865;28;20082;-52
2023/08/27 11:18:58;;;;;;;2.85;1.10;;;19.80;99.90;;;;;;5044424;28;20041;-54
2023/08/27 11:21:24;;;;;;;7.13;1.38;;;19.70;99.90;;;;;;5044227;28;20116;-53
2023/08/27 11:24:15;;;;;;;2.50;0.80;;;19.60;99.90;;;;;;5045681;28;20258;-55
2023/08/27 11:26:41;;;;;;;5.03;1.13;;;19.70;99.90;;;;;;5045483;28;20048;-53
2023/08/27 11:29:11;;;;;;;1.73;0.55;;;19.70;99.90;;;;;;5045359;28;20044;-52
2023/08/27 11:31:40;;;;;;;1.77;0.80;;;19.80;99.90;;;;;;5042865;28;20084;-53
2023/08/27 11:34:07;;;;;;;1.30;0.70;;;19.80;99.90;;;;;;5040393;28;20041;-52
2023/08/27 11:36:34;;;;;;;2.90;1.02;;;19.80;99.90;;;;;;5045383;28;20124;-51
2023/08/27 11:39:00;;;;;;;;;;;19.70;99.90;;;;;;5042907;28;20552;-54
2023/08/27 11:41:32;;;;;;;7.32;1.10;;;19.60;99.90;;;;;;5049846;28;19925;-51
2023/08/27 11:43:58;;;;;;;3.80;0.60;;;19.50;99.90;;;;;;5044079;28;20041;-52
2023/08/27 11:46:23;;;;;;;;;;;19.30;99.90;;;;;;5026360;28;20053;-53
2023/08/27 11:48:49;;;;;;;3.67;0.90;;;19.20;99.90;;;;;;5042822;28;19998;-54
2023/08/27 11:51:18;;;;;;;4.82;0.70;;;19.10;99.90;;;;;;5048420;28;20065;-54
2023/08/27 11:53:44;;;;;;;4.30;0.80;;;19.10;99.90;;;;;;5047484;28;20041;-53
2023/08/27 11:56:11;;;;;;;4.90;0.60;;;19.00;99.90;;;;;;5041035;28;20044;-52
2023/08/27 11:58:39;;;;;;;2.72;0.65;;;18.90;99.90;;;;;;5042293;28;20163;-51
2023/08/27 12:01:06;;;;;;;4.13;0.73;;;18.90;99.90;;;;;;5043626;28;20041;-56
2023/08/27 12:03:33;;;;;;;2.40;0.80;;;18.70;99.90;;;;;;5046824;28;20385;-51
2023/08/27 12:05:58;;;;;;;4.75;0.68;;;18.70;99.90;;;;;;5045713;28;20052;-52
2023/08/27 12:08:24;;;;;;;3.40;0.60;;;18.50;99.90;;;;;;5045654;28;20033;-53
2023/08/27 12:10:50;;;;;;;2.72;0.43;;;18.40;99.90;;;;;;5046339;28;20037;-53
2023/08/27 12:13:15;;;;;;;2.75;0.73;;;18.30;99.90;;;;;;5046841;28;20029;-53
2023/08/27 12:15:42;;;;;;;1.63;0.60;;;18.10;99.90;;;;;;5045927;28;20153;-56
2023/08/27 12:18:08;;;;;;;1.88;0.80;;;17.90;99.90;;;;;;5046373;28;21412;-52
2023/08/27 12:20:35;;;;;;;1.98;0.47;;;17.80;99.90;;;;;;5047916;28;20404;-51
2023/08/27 12:23:12;;;;;;;0.80;0.60;;;17.60;99.90;;;;;;5048975;28;20455;-55
2023/08/27 12:25:44;;;;;;;1.95;0.80;;;17.40;99.90;;;;;;5049577;28;20514;-53
2023/08/27 12:28:11;;;;;;;2.47;1.38;;;17.40;99.90;;;;;;5043936;28;20040;-51
2023/08/27 12:30:37;;;;;;;3.67;1.80;;;17.30;99.90;;;;;;5043426;28;20040;-51
2023/08/27 12:33:03;;;;;;;2.10;2.00;;;17.20;99.90;;;;;;5046787;28;20565;-52
2023/08/27 12:35:29;;;;;;;5.30;2.22;;;17.20;99.90;;;;;;5049545;28;20049;-54
2023/08/27 12:37:55;;;;;;;1.98;1.33;;;17.30;99.90;;;;;;5043770;28;20036;-52
2023/08/27 12:40:21;;;;;;;3.40;1.35;;;17.30;99.90;;;;;;5048454;28;20062;-53
2023/08/27 12:42:47;;;;;;;;;;;17.20;99.90;;;;;;5049222;28;20033;-52
2023/08/27 12:45:12;;;;;;;1.88;1.00;;;17.20;99.90;;;;;;5047260;28;19931;-51
2023/08/27 12:47:38;;;;;;;5.70;1.58;;;17.20;99.90;;;;;;5049052;28;20121;-54
2023/08/27 12:50:04;;;;;;;2.30;0.70;;;17.20;99.90;;;;;;5047692;28;20064;-51